• Join FlightAware (Why Join?)
  • Login
  • US Flag 
09:12AM EDT


 

Airport Tracker/Info


-or-


 

Live Flight TrackerFlight Track Log ✈ SWA1729 ✈ 26-Apr-2013 ✈ KHOU - KELP

Flight Track Log - Related Links

Times and Time Zones

All times are in EDT time to prevent confusion due to time zone crossing. See the SWA1729 flight status page for this flight to view local times or setup timezone preferences in your user account.

Time Position Orientation Groundspeed Altitude Reporting Facility
EDT Latitude Longitude Course Direction KTS MPH feet Rate Location/Type
10:07PM 29.5494 -95.3567 215° Southwest 225 259 6,200  Level Houston Center
10:08PM 29.5653 -95.4353 283° West 278 320 10,000 2,820 Climbing Houston Center
10:09PM 29.6078 -95.5189 300° West 299 344 12,000 2,160 Climbing Houston Center
10:10PM 29.6547 -95.6172 299° West 343 395 14,500 2,640 Climbing Houston Center
10:11PM 29.7042 -95.7206 299° West 364 419 17,500 2,640 Climbing Houston Center
10:12PM 29.7531 -95.8233 299° West 366 421 19,900 2,220 Climbing Houston Center
10:13PM 29.8039 -95.9297 299° West 376 433 22,100 2,280 Climbing Houston Center
10:14PM 29.8644 -96.0569 299° West 389 448 24,600 1,860 Climbing Houston Center
10:15PM 29.9172 -96.1678 299° West 395 455 26,000 1,620 Climbing Houston Center
10:16PM 29.9417 -96.2939 283° West 405 466 27,900 1,860 Climbing Houston Center
10:17PM 29.9481 -96.4211 273° West 400 460 29,900 1,860 Climbing Houston Center
10:18PM 29.9544 -96.5456 273° West 393 452 31,800 1,620 Climbing Houston Center
10:19PM 29.9778 -96.6639 283° West 381 438 33,200 1,320 Climbing Houston Center
10:20PM 30.0019 -96.7822 283° West 381 438 34,600 1,260 Climbing Houston Center
10:21PM 30.0314 -96.9214 284° West 375 432 35,900 660 Climbing Houston Center
10:22PM 30.0550 -97.0372 283° West 375 432 36,000  Climbing Houston Center
10:23PM 30.0808 -97.1589 284° West 387 445 36,000  Level Houston Center
10:24PM 30.1064 -97.2867 283° West 385 443 36,000  Level Houston Center
10:25PM 30.1294 -97.4047 283° West 376 433 36,000  Level Houston Center
10:26PM 30.1544 -97.5239 284° West 375 432 36,000  Level Houston Center
10:27PM 30.1781 -97.6419 283° West 375 432 36,000  Level Houston Center
10:28PM 30.2019 -97.7589 283° West 371 427 36,000  Level Houston Center
10:29PM 30.2269 -97.8814 283° West 372 428 36,000  Level Houston Center
10:30PM 30.2483 -97.9950 282° West 365 420 36,000  Level Houston Center
10:31PM 30.2722 -98.1158 283° West 380 437 36,000  Level Houston Center
10:32PM 30.2969 -98.2356 283° West 384 442 36,000  Level Houston Center
10:33PM 30.3192 -98.3583 282° West 382 440 36,000  Level Houston Center
10:34PM 30.3447 -98.4819 284° West 388 447 36,000  Level Houston Center
10:35PM 30.3681 -98.6039 283° West 386 444 36,000  Level Houston Center
10:36PM 30.3917 -98.7281 282° West 390 449 36,000  Level Houston Center
10:37PM 30.4164 -98.8508 283° West 388 447 36,000  Level Houston Center
10:38PM 30.4439 -98.9744 284° West 391 450 36,000  Level Houston Center
10:39PM 30.4703 -99.0967 284° West 388 447 36,000  Level Houston Center
10:40PM 30.4964 -99.2133 285° West 393 452 36,000  Level Houston Center
10:41PM 30.5231 -99.3344 284° West 392 451 36,000  Level Houston Center
10:42PM 30.5478 -99.4553 283° West 389 448 36,000  Level Houston Center
10:43PM 30.5756 -99.5767 285° West 391 450 36,000  Level Houston Center
10:44PM 30.6058 -99.7225 284° West 390 449 36,000  Level Houston Center
10:45PM 30.6317 -99.8439 284° West 390 449 36,000  Level Houston Center
10:46PM 30.6572 -99.9656 284° West 390 449 36,000  Level Houston Center
10:48PM 30.6822 -100.0861 284° West 388 447 36,000  Level Houston Center
10:49PM 30.7072 -100.2056 284° West 385 443 36,000  Level Houston Center
10:50PM 30.7311 -100.3231 283° West 381 438 36,000  Level Houston Center
10:51PM 30.7558 -100.4436 283° West 386 444 36,000  Level Houston Center
10:52PM 30.7803 -100.5633 283° West 385 443 36,000  Level Houston Center
10:53PM 30.8056 -100.6836 284° West 389 448 36,000  Level Houston Center
10:54PM 30.8344 -100.8267 283° West 382 440 36,000  Level Houston Center
10:55PM 30.8586 -100.9469 283° West 384 442 36,000  Level Houston Center
10:56PM 30.8814 -101.0678 282° West 387 445 36,000  Level Houston Center
10:57PM 30.9083 -101.1858 285° West 381 438 36,000  Level Houston Center
10:58PM 30.9325 -101.3064 283° West 382 440 36,000  Level Houston Center
10:59PM 30.9506 -101.4094 282° West 385 443 36,000  Level Albuquerque Center
11:00PM 30.9744 -101.5306 283° West 385 443 36,000  Level Albuquerque Center
11:01PM 30.9978 -101.6514 283° West 384 442 36,000  Level Albuquerque Center
11:02PM 31.0225 -101.7728 283° West 384 442 36,000  Level Albuquerque Center
11:03PM 31.0458 -101.8947 283° West 385 443 36,000  Level Albuquerque Center
11:04PM 31.0697 -102.0214 282° West 396 456 36,000  Level Albuquerque Center
11:05PM 31.0928 -102.1411 283° West 385 443 36,000  Level Albuquerque Center
11:06PM 31.1206 -102.2839 283° West 377 434 36,000  Level Albuquerque Center
11:07PM 31.1425 -102.4008 282° West 372 428 36,000  Level Albuquerque Center
11:08PM 31.1642 -102.5178 282° West 369 425 36,000 -480 Level Albuquerque Center
11:09PM 31.1881 -102.6406 283° West 366 421 35,100 -540 Descending Albuquerque Center
11:10PM 31.2097 -102.7600 282° West 372 428 35,000 -60 Descending Albuquerque Center
11:11PM 31.2319 -102.8786 282° West 375 432 35,000  Level Albuquerque Center
11:12PM 31.2253 -102.9956 266° West 364 419 35,000  Level Albuquerque Center
11:13PM 31.2153 -103.1125 264° West 363 418 35,000 -300 Level Albuquerque Center
11:14PM 31.2058 -103.2300 265° West 364 419 34,400 -840 Descending Albuquerque Center
11:15PM 31.2142 -103.3467 275° West 363 418 33,400 -960 Descending Albuquerque Center
11:16PM 31.2408 -103.4639 285° West 371 427 32,500 -720 Descending Albuquerque Center
11:17PM 31.2675 -103.5836 285° West 379 436 32,000 -300 Descending Albuquerque Center
11:18PM 31.2925 -103.7061 283° West 386 444 32,000  Level Albuquerque Center
11:19PM 31.3197 -103.8472 283° West 387 445 32,000 -60 Level Albuquerque Center
11:20PM 31.3433 -103.9681 283° West 385 443 31,900  Descending Albuquerque Center
11:21PM 31.3700 -104.0897 284° West 387 445 32,000  Climbing Albuquerque Center
11:22PM 31.3942 -104.2094 283° West 383 441 32,000  Level Albuquerque Center
11:23PM 31.4172 -104.3303 283° West 382 440 32,000  Level Albuquerque Center
11:24PM 31.4422 -104.4519 284° West 385 443 32,000  Level Albuquerque Center
11:25PM 31.4667 -104.5742 283° West 388 447 32,000  Level Albuquerque Center
11:26PM 31.4900 -104.6967 283° West 389 448 32,000 -300 Level Albuquerque Center
11:27PM 31.5197 -104.8428 283° West 388 447 31,400 -1,620 Descending Albuquerque Center
11:28PM 31.5431 -104.9631 283° West 384 442 28,800 -2,460 Descending Albuquerque Center
11:29PM 31.5647 -105.0794 282° West 373 429 26,400 -2,400 Descending Albuquerque Center
11:30PM 31.5875 -105.1942 283° West 367 422 23,900 -2,460 Descending Albuquerque Center
11:31PM 31.6075 -105.3047 282° West 355 409 21,500 -2,400 Descending Albuquerque Center
11:32PM 31.6219 -105.3964 281° West 340 391 19,700 -2,340 Descending Albuquerque Center
11:33PM 31.6467 -105.5275 283° West 333 383 17,000 -2,280 Descending Albuquerque Center
11:34PM 31.6647 -105.6228 283° West 326 375 14,900 -2,340 Descending Albuquerque Center
11:35PM 31.6856 -105.7225 284° West 316 364 12,600 -2,280 Descending Albuquerque Center
11:36PM 31.7042 -105.8228 282° West 313 360 10,400 -1,620 Descending Albuquerque Center
11:37PM 31.7211 -105.9133 282° West 284 327 9,400 -1,080 Descending Albuquerque Center
11:37PM 31.7242 -105.9319 281° West 284 327 9,100 -1,620 Descending Albuquerque Center
11:38PM 31.7369 -105.9994 283° West 268 308 7,800 -1,680 Descending Albuquerque Center
11:38PM 31.7408 -106.0189 283° West 274 315 7,400 -1,920 Descending Albuquerque Center
11:39PM 31.7561 -106.0919 284° West 269 310 5,900 -1,680 Descending Albuquerque Center
11:39PM 31.7592 -106.1036 287° West 270 311 5,700 -840 Descending Albuquerque Center
11:40PM 31.7739 -106.1775 283° West 267 307 5,100 -600 Descending Albuquerque Center
11:40PM 31.7761 -106.1861 287° West 260 299 5,100  Level Albuquerque Center
11:41PM 31.7853 -106.2394 281° West 176 203 5,100 60 Level Albuquerque Center
11:41PM 31.7878 -106.2458 295° West 190 219 5,200 60 Climbing Albuquerque Center
11:42PM 31.7961 -106.2869 283° West 140 161 5,200 -120 Level Albuquerque Center
11:42PM 31.7978 -106.2928 289° West 153 176 5,100 -840 Descending Albuquerque Center
11:43PM 31.7994 -106.3411 272° West 134 154 4,200 -1,020 Descending Albuquerque Center
11:45PM 31.8000 -106.3667 270° West  Level FlightAware Approximate
11:52PM 31.8072 -106.3764 270° West  Level Estimated
11:53PM 31.8072 -106.3764 270° West  Level Estimated
11:54PM 31.8072 -106.3764 270° West  Level Estimated
11:55PM 31.8072 -106.3764 270° West  Level Estimated
11:56PM 31.8072 -106.3764 270° West  Level Estimated